Terminal Aerodrome Forecast
Issued by NWS

Home | Current Version | Previous Version | Text Only | Print | Product List | Glossary On
Versions: 1 2 3 4 5 6 7 8 9 10 11 12 13 14 15 16 17 18 19 20 21 22 23 24 25
933
FTUS46 KMTR 041720
TAFSFO
TAF
KSFO 041720Z 0418/0524 02004KT P6SM SCT200
     FM042100 29009KT P6SM BKN200
     FM050400 28012KT P6SM SCT015
     FM050600 28008KT P6SM OVC010
     FM051700 28005KT P6SM SCT012
     FM052000 31012KT P6SM SCT050=

USA.gov is the U.S. government's official web portal to all federal, state and local government web resources and services.